AIC2183 VABB-VGHS
Flight info
| Callsign | AIC2183 |
|---|---|
| Flight time | 2h 16m |
| Altitude | 37000 |
| Route | ANOLI2A NONEN Q19 CEA A462 DAC |
| Aircraft | A20N/M-SDE2E3FGHIJ1RWXY/LB1 |
Departure
| Time | 2026-04-26 18:14 |
|---|---|
| Airport | Chhatrapati Shivaji Maharaj International Airport (VABB) |
Arrival
| Time | 2026-04-26 20:30 |
|---|---|
| Airport | Hazrat Shahjalal International Airport (VGHS) |
| Time | Latitude | Longitude | Altitude | Speed | Heading |
|---|---|---|---|---|---|
| 2026-04-26 17:54 | 19.09486 | 72.87714 | 33 ft | 0 kts | 309° |
| 2026-04-26 18:06 | 19.09480 | 72.87722 | 32 ft | 4 kts | 307° |
| 2026-04-26 18:06 | 19.09465 | 72.87746 | 33 ft | 4 kts | 296° |
| 2026-04-26 18:06 | 19.09456 | 72.87772 | 33 ft | 4 kts | 274° |
| 2026-04-26 18:06 | 19.09460 | 72.87795 | 30 ft | 2 kts | 214° |
| 2026-04-26 18:07 | 19.09465 | 72.87799 | 31 ft | 0 kts | 213° |
| 2026-04-26 18:11 | 19.09457 | 72.87793 | 31 ft | 4 kts | 213° |
| 2026-04-26 18:11 | 19.09414 | 72.87763 | 33 ft | 10 kts | 213° |
| 2026-04-26 18:11 | 19.09329 | 72.87758 | 33 ft | 15 kts | 172° |
| 2026-04-26 18:11 | 19.09213 | 72.87758 | 33 ft | 17 kts | 180° |
| 2026-04-26 18:12 | 19.09102 | 72.87802 | 33 ft | 14 kts | 179° |
| 2026-04-26 18:12 | 19.09040 | 72.87803 | 32 ft | 11 kts | 178° |
| 2026-04-26 18:12 | 19.08958 | 72.87806 | 32 ft | 13 kts | 178° |
| 2026-04-26 18:12 | 19.08887 | 72.87791 | 32 ft | 7 kts | 236° |
| 2026-04-26 18:13 | 19.08887 | 72.87773 | 32 ft | 5 kts | 271° |
| 2026-04-26 18:13 | 19.08884 | 72.87556 | 32 ft | 64 kts | 269° |
| 2026-04-26 18:13 | 19.08864 | 72.86867 | 35 ft | 121 kts | 269° |
| 2026-04-26 18:13 | 19.08865 | 72.86557 | 32 ft | 138 kts | 269° |
| 2026-04-26 18:14 | 19.08920 | 72.84624 | 631 ft | 165 kts | 275° |
| 2026-04-26 18:14 | 19.09059 | 72.83391 | 1087 ft | 173 kts | 275° |
| 2026-04-26 18:14 | 19.09171 | 72.82122 | 1674 ft | 175 kts | 274° |
| 2026-04-26 18:14 | 19.09282 | 72.80793 | 2144 ft | 185 kts | 276° |
| 2026-04-26 18:15 | 19.09463 | 72.79396 | 2549 ft | 200 kts | 289° |
| 2026-04-26 18:15 | 19.10273 | 72.78182 | 2895 ft | 216 kts | 323° |
| 2026-04-26 18:15 | 19.11714 | 72.77533 | 3215 ft | 238 kts | 348° |
| 2026-04-26 18:15 | 19.13426 | 72.77297 | 3600 ft | 258 kts | 354° |
| 2026-04-26 18:16 | 19.15231 | 72.77105 | 4321 ft | 261 kts | 353° |
| 2026-04-26 18:16 | 19.18881 | 72.76697 | 5858 ft | 268 kts | 7° |
| 2026-04-26 18:16 | 19.20612 | 72.77392 | 6538 ft | 276 kts | 33° |
| 2026-04-26 18:17 | 19.21927 | 72.78899 | 7223 ft | 285 kts | 58° |
| 2026-04-26 18:17 | 19.22774 | 72.80808 | 7950 ft | 289 kts | 67° |
| 2026-04-26 18:17 | 19.23480 | 72.82811 | 8708 ft | 292 kts | 69° |
| 2026-04-26 18:17 | 19.24205 | 72.84830 | 9450 ft | 295 kts | 68° |
| 2026-04-26 18:18 | 19.24717 | 72.86171 | 9941 ft | 298 kts | 68° |
| 2026-04-26 18:18 | 19.25557 | 72.88265 | 10320 ft | 316 kts | 67° |
| 2026-04-26 18:18 | 19.26461 | 72.90438 | 10515 ft | 337 kts | 66° |
| 2026-04-26 18:18 | 19.27452 | 72.92779 | 10948 ft | 348 kts | 66° |
| 2026-04-26 18:19 | 19.28435 | 72.95089 | 11632 ft | 350 kts | 66° |
| 2026-04-26 18:19 | 19.29439 | 72.97448 | 12355 ft | 353 kts | 67° |
| 2026-04-26 18:19 | 19.30449 | 72.99826 | 13061 ft | 355 kts | 67° |
| 2026-04-26 18:19 | 19.31464 | 73.02220 | 13770 ft | 358 kts | 68° |
| 2026-04-26 18:20 | 19.32489 | 73.04642 | 14369 ft | 362 kts | 68° |
| 2026-04-26 18:20 | 19.33526 | 73.07096 | 14926 ft | 367 kts | 67° |
| 2026-04-26 18:20 | 19.34573 | 73.09577 | 15499 ft | 372 kts | 67° |
| 2026-04-26 18:20 | 19.35275 | 73.11240 | 15872 ft | 374 kts | 67° |
| 2026-04-26 18:21 | 19.36707 | 73.14632 | 16616 ft | 380 kts | 67° |
| 2026-04-26 18:21 | 19.37790 | 73.17201 | 17156 ft | 384 kts | 67° |
| 2026-04-26 18:21 | 19.38888 | 73.19804 | 17695 ft | 389 kts | 66° |
| 2026-04-26 18:21 | 19.39996 | 73.22435 | 18198 ft | 393 kts | 66° |
| 2026-04-26 18:22 | 19.41114 | 73.25089 | 18659 ft | 397 kts | 66° |
| 2026-04-26 18:22 | 19.42245 | 73.27777 | 19082 ft | 402 kts | 66° |
| 2026-04-26 18:22 | 19.43389 | 73.30499 | 19537 ft | 406 kts | 66° |
| 2026-04-26 18:22 | 19.44542 | 73.33242 | 19967 ft | 410 kts | 66° |
| 2026-04-26 18:23 | 19.45710 | 73.36021 | 20398 ft | 414 kts | 66° |
| 2026-04-26 18:23 | 19.46887 | 73.38823 | 20834 ft | 419 kts | 66° |
| 2026-04-26 18:23 | 19.48076 | 73.41656 | 21263 ft | 423 kts | 66° |
| 2026-04-26 18:23 | 19.49277 | 73.44518 | 21686 ft | 427 kts | 66° |
| 2026-04-26 18:24 | 19.50488 | 73.47406 | 22102 ft | 431 kts | 66° |
| 2026-04-26 18:24 | 19.51713 | 73.50326 | 22522 ft | 436 kts | 66° |
| 2026-04-26 18:24 | 19.52949 | 73.53278 | 22942 ft | 440 kts | 66° |
| 2026-04-26 18:24 | 19.54195 | 73.56252 | 23361 ft | 443 kts | 66° |
| 2026-04-26 18:25 | 19.55449 | 73.59250 | 23716 ft | 447 kts | 66° |
| 2026-04-26 18:25 | 19.56715 | 73.62277 | 24068 ft | 451 kts | 66° |
| 2026-04-26 18:25 | 19.57990 | 73.65327 | 24422 ft | 454 kts | 66° |
| 2026-04-26 18:25 | 19.59286 | 73.68396 | 24763 ft | 458 kts | 64° |
| 2026-04-26 18:26 | 19.60777 | 73.71394 | 25111 ft | 461 kts | 61° |
| 2026-04-26 18:26 | 19.62300 | 73.74396 | 25453 ft | 464 kts | 61° |
| 2026-04-26 18:26 | 19.63834 | 73.77427 | 25778 ft | 468 kts | 61° |
| 2026-04-26 18:26 | 19.65378 | 73.80485 | 26091 ft | 472 kts | 61° |
| 2026-04-26 18:27 | 19.66932 | 73.83563 | 26437 ft | 475 kts | 61° |
| 2026-04-26 18:27 | 19.68495 | 73.86664 | 26756 ft | 478 kts | 61° |
| 2026-04-26 18:27 | 19.70069 | 73.89787 | 27048 ft | 482 kts | 61° |
| 2026-04-26 18:27 | 19.71652 | 73.92931 | 27344 ft | 485 kts | 61° |
| 2026-04-26 18:28 | 19.73248 | 73.96102 | 27666 ft | 488 kts | 61° |
| 2026-04-26 18:28 | 19.74850 | 73.99287 | 27956 ft | 491 kts | 61° |
| 2026-04-26 18:28 | 19.76353 | 74.02556 | 28238 ft | 495 kts | 68° |
| 2026-04-26 18:28 | 19.77586 | 74.05973 | 28511 ft | 498 kts | 69° |
| 2026-04-26 18:29 | 19.78803 | 74.09377 | 28776 ft | 501 kts | 69° |
| 2026-04-26 18:29 | 19.80047 | 74.12839 | 29043 ft | 504 kts | 69° |
| 2026-04-26 18:29 | 19.81300 | 74.16324 | 29307 ft | 507 kts | 69° |
| 2026-04-26 18:29 | 19.82560 | 74.19834 | 29580 ft | 509 kts | 69° |
| 2026-04-26 18:30 | 19.83825 | 74.23359 | 29848 ft | 512 kts | 69° |
| 2026-04-26 18:30 | 19.85094 | 74.26902 | 30085 ft | 515 kts | 69° |
| 2026-04-26 18:30 | 19.86370 | 74.30465 | 30333 ft | 517 kts | 69° |
| 2026-04-26 18:30 | 19.87650 | 74.34042 | 30584 ft | 520 kts | 69° |
| 2026-04-26 18:31 | 19.88936 | 74.37637 | 30844 ft | 522 kts | 69° |
| 2026-04-26 18:31 | 19.90226 | 74.41248 | 31132 ft | 523 kts | 69° |
| 2026-04-26 18:31 | 19.91515 | 74.44859 | 31465 ft | 523 kts | 69° |
| 2026-04-26 18:31 | 19.92807 | 74.48482 | 31807 ft | 523 kts | 69° |
| 2026-04-26 18:32 | 19.94095 | 74.52095 | 32120 ft | 523 kts | 70° |
| 2026-04-26 18:32 | 19.95383 | 74.55709 | 32434 ft | 523 kts | 70° |
| 2026-04-26 18:32 | 19.96671 | 74.59328 | 32741 ft | 524 kts | 70° |
| 2026-04-26 18:32 | 19.97959 | 74.62949 | 33038 ft | 524 kts | 70° |
| 2026-04-26 18:33 | 19.99246 | 74.66571 | 33336 ft | 524 kts | 70° |
| 2026-04-26 18:33 | 20.00533 | 74.70194 | 33620 ft | 524 kts | 70° |
| 2026-04-26 18:33 | 20.01842 | 74.73808 | 33891 ft | 524 kts | 69° |
| 2026-04-26 18:33 | 20.03177 | 74.77416 | 34137 ft | 524 kts | 69° |
| 2026-04-26 18:34 | 20.04513 | 74.81013 | 34403 ft | 523 kts | 69° |
| 2026-04-26 18:34 | 20.05846 | 74.84609 | 34677 ft | 522 kts | 69° |
| 2026-04-26 18:34 | 20.07170 | 74.88194 | 34924 ft | 521 kts | 69° |
| 2026-04-26 18:34 | 20.08490 | 74.91779 | 35157 ft | 520 kts | 69° |
| 2026-04-26 18:35 | 20.09807 | 74.95362 | 35377 ft | 520 kts | 69° |
| 2026-04-26 18:35 | 20.11122 | 74.98942 | 35633 ft | 519 kts | 69° |
| 2026-04-26 18:35 | 20.12432 | 75.02514 | 35856 ft | 518 kts | 69° |
| 2026-04-26 18:35 | 20.13742 | 75.06084 | 36076 ft | 518 kts | 69° |
| 2026-04-26 18:36 | 20.15050 | 75.09656 | 36290 ft | 517 kts | 69° |
| 2026-04-26 18:36 | 20.16338 | 75.13172 | 36499 ft | 516 kts | 69° |
| 2026-04-26 18:36 | 20.17657 | 75.16776 | 36703 ft | 516 kts | 69° |
| 2026-04-26 18:36 | 20.18958 | 75.20335 | 36838 ft | 516 kts | 69° |
| 2026-04-26 18:37 | 20.21553 | 75.27439 | 36860 ft | 514 kts | 69° |
| 2026-04-26 18:37 | 20.24124 | 75.34488 | 36859 ft | 514 kts | 69° |
| 2026-04-26 18:38 | 20.26710 | 75.41590 | 36855 ft | 514 kts | 69° |
| 2026-04-26 18:38 | 20.29286 | 75.48696 | 36852 ft | 514 kts | 70° |
| 2026-04-26 18:39 | 20.31310 | 75.55994 | 36849 ft | 514 kts | 75° |
| 2026-04-26 18:39 | 20.33263 | 75.63323 | 36848 ft | 515 kts | 75° |
| 2026-04-26 18:40 | 20.35218 | 75.70668 | 36849 ft | 515 kts | 75° |
| 2026-04-26 18:40 | 20.37166 | 75.78013 | 36843 ft | 515 kts | 75° |
| 2026-04-26 18:41 | 20.39112 | 75.85365 | 36842 ft | 516 kts | 75° |
| 2026-04-26 18:41 | 20.41057 | 75.92728 | 36839 ft | 516 kts | 75° |
| 2026-04-26 18:42 | 20.42999 | 76.00092 | 36835 ft | 516 kts | 75° |
| 2026-04-26 18:42 | 20.45006 | 76.07436 | 36832 ft | 516 kts | 73° |
| 2026-04-26 18:43 | 20.47050 | 76.14771 | 36826 ft | 516 kts | 73° |
| 2026-04-26 18:43 | 20.49080 | 76.22111 | 36823 ft | 516 kts | 74° |
| 2026-04-26 18:44 | 20.51100 | 76.29452 | 36814 ft | 516 kts | 74° |
| 2026-04-26 18:44 | 20.53113 | 76.36782 | 36804 ft | 515 kts | 74° |
| 2026-04-26 18:45 | 20.55125 | 76.44122 | 36799 ft | 515 kts | 74° |
| 2026-04-26 18:45 | 20.57130 | 76.51452 | 36791 ft | 515 kts | 74° |
| 2026-04-26 18:46 | 20.59134 | 76.58785 | 36782 ft | 514 kts | 74° |
| 2026-04-26 18:46 | 20.61132 | 76.66113 | 36778 ft | 514 kts | 73° |
| 2026-04-26 18:47 | 20.63126 | 76.73440 | 36773 ft | 514 kts | 74° |
| 2026-04-26 18:47 | 20.65115 | 76.80761 | 36765 ft | 514 kts | 73° |
| 2026-04-26 18:48 | 20.67103 | 76.88093 | 36765 ft | 514 kts | 74° |
| 2026-04-26 18:48 | 20.69085 | 76.95417 | 36761 ft | 513 kts | 74° |
| 2026-04-26 18:49 | 20.71065 | 77.02745 | 36760 ft | 513 kts | 73° |
| 2026-04-26 18:49 | 20.73042 | 77.10072 | 36760 ft | 514 kts | 73° |
| 2026-04-26 18:50 | 20.75016 | 77.17407 | 36761 ft | 514 kts | 74° |
| 2026-04-26 18:50 | 20.76987 | 77.24742 | 36761 ft | 514 kts | 74° |
| 2026-04-26 18:51 | 20.78956 | 77.32084 | 36765 ft | 514 kts | 74° |
| 2026-04-26 18:51 | 20.80925 | 77.39439 | 36767 ft | 515 kts | 74° |
| 2026-04-26 18:52 | 20.82893 | 77.46802 | 36771 ft | 515 kts | 74° |
| 2026-04-26 18:52 | 20.84843 | 77.54111 | 36772 ft | 515 kts | 74° |
| 2026-04-26 18:53 | 20.86830 | 77.61476 | 36778 ft | 516 kts | 73° |
| 2026-04-26 18:53 | 20.88862 | 77.68882 | 36777 ft | 516 kts | 73° |
| 2026-04-26 18:54 | 20.90862 | 77.76200 | 36782 ft | 516 kts | 73° |
| 2026-04-26 18:54 | 20.92887 | 77.83571 | 36783 ft | 517 kts | 72° |
| 2026-04-26 18:55 | 20.94995 | 77.90919 | 36787 ft | 517 kts | 72° |
| 2026-04-26 18:55 | 20.97099 | 77.98268 | 36789 ft | 517 kts | 72° |
| 2026-04-26 18:56 | 20.99191 | 78.05623 | 36793 ft | 517 kts | 72° |
| 2026-04-26 18:56 | 21.01276 | 78.12975 | 36789 ft | 516 kts | 72° |
| 2026-04-26 18:57 | 21.02669 | 78.17897 | 36792 ft | 516 kts | 72° |
| 2026-04-26 18:57 | 21.05436 | 78.27687 | 36794 ft | 516 kts | 72° |
| 2026-04-26 18:58 | 21.07511 | 78.35046 | 36794 ft | 516 kts | 72° |
| 2026-04-26 18:58 | 21.09584 | 78.42409 | 36800 ft | 516 kts | 72° |
| 2026-04-26 18:59 | 21.11655 | 78.49780 | 36798 ft | 517 kts | 72° |
| 2026-04-26 18:59 | 21.13722 | 78.57149 | 36799 ft | 517 kts | 72° |
| 2026-04-26 19:00 | 21.15784 | 78.64517 | 36795 ft | 517 kts | 72° |
| 2026-04-26 19:00 | 21.17844 | 78.71889 | 36790 ft | 517 kts | 72° |
| 2026-04-26 19:01 | 21.19894 | 78.79272 | 36784 ft | 517 kts | 73° |
| 2026-04-26 19:01 | 21.21929 | 78.86662 | 36778 ft | 517 kts | 73° |
| 2026-04-26 19:02 | 21.23963 | 78.94051 | 36773 ft | 517 kts | 73° |
| 2026-04-26 19:02 | 21.25308 | 78.98945 | 36778 ft | 517 kts | 73° |
| 2026-04-26 19:03 | 21.28012 | 79.08798 | 36779 ft | 517 kts | 73° |
| 2026-04-26 19:03 | 21.30038 | 79.16199 | 36783 ft | 518 kts | 72° |
| 2026-04-26 19:04 | 21.32062 | 79.23603 | 36785 ft | 518 kts | 72° |
| 2026-04-26 19:04 | 21.33757 | 79.29815 | 36785 ft | 518 kts | 72° |
| 2026-04-26 19:05 | 21.36784 | 79.40933 | 36779 ft | 518 kts | 72° |
| 2026-04-26 19:06 | 21.38799 | 79.48350 | 36778 ft | 518 kts | 72° |
| 2026-04-26 19:06 | 21.40810 | 79.55769 | 36777 ft | 518 kts | 72° |
| 2026-04-26 19:07 | 21.42816 | 79.63183 | 36771 ft | 517 kts | 72° |
| 2026-04-26 19:07 | 21.44819 | 79.70602 | 36768 ft | 517 kts | 72° |
| 2026-04-26 19:08 | 21.46821 | 79.78027 | 36766 ft | 517 kts | 72° |
| 2026-04-26 19:08 | 21.48816 | 79.85444 | 36764 ft | 517 kts | 72° |
| 2026-04-26 19:09 | 21.50795 | 79.92814 | 36758 ft | 517 kts | 72° |
| 2026-04-26 19:09 | 21.52784 | 80.00236 | 36761 ft | 517 kts | 72° |
| 2026-04-26 19:10 | 21.54771 | 80.07663 | 36760 ft | 517 kts | 73° |
| 2026-04-26 19:10 | 21.56755 | 80.15096 | 36759 ft | 517 kts | 73° |
| 2026-04-26 19:11 | 21.58735 | 80.22526 | 36760 ft | 518 kts | 72° |
| 2026-04-26 19:11 | 21.60764 | 80.29951 | 36759 ft | 517 kts | 71° |
| 2026-04-26 19:12 | 21.62955 | 80.37316 | 36763 ft | 517 kts | 71° |
| 2026-04-26 19:12 | 21.65136 | 80.44686 | 36765 ft | 518 kts | 71° |
| 2026-04-26 19:13 | 21.67298 | 80.52071 | 36767 ft | 518 kts | 71° |
| 2026-04-26 19:13 | 21.69403 | 80.59479 | 36771 ft | 519 kts | 72° |
| 2026-04-26 19:14 | 21.71367 | 80.66942 | 36771 ft | 519 kts | 73° |
| 2026-04-26 19:14 | 21.73339 | 80.74405 | 36763 ft | 519 kts | 72° |
| 2026-04-26 19:15 | 21.75324 | 80.81869 | 36769 ft | 519 kts | 72° |
| 2026-04-26 19:15 | 21.77311 | 80.89342 | 36756 ft | 520 kts | 72° |
| 2026-04-26 19:16 | 21.79294 | 80.96818 | 36758 ft | 520 kts | 72° |
| 2026-04-26 19:16 | 21.81276 | 81.04300 | 36750 ft | 520 kts | 72° |
| 2026-04-26 19:17 | 21.83253 | 81.11784 | 36751 ft | 520 kts | 72° |
| 2026-04-26 19:17 | 21.85227 | 81.19271 | 36744 ft | 520 kts | 72° |
| 2026-04-26 19:18 | 21.87197 | 81.26756 | 36739 ft | 520 kts | 72° |
| 2026-04-26 19:18 | 21.89165 | 81.34247 | 36727 ft | 520 kts | 72° |
| 2026-04-26 19:19 | 21.91128 | 81.41737 | 36722 ft | 520 kts | 72° |
| 2026-04-26 19:19 | 21.93091 | 81.49235 | 36718 ft | 520 kts | 72° |
| 2026-04-26 19:20 | 21.95108 | 81.56713 | 36713 ft | 520 kts | 72° |
| 2026-04-26 19:20 | 21.97138 | 81.64184 | 36716 ft | 520 kts | 72° |
| 2026-04-26 19:21 | 21.99156 | 81.71660 | 36708 ft | 520 kts | 72° |
| 2026-04-26 19:21 | 22.01169 | 81.79143 | 36704 ft | 520 kts | 72° |
| 2026-04-26 19:22 | 22.03178 | 81.86626 | 36708 ft | 520 kts | 72° |
| 2026-04-26 19:22 | 22.05184 | 81.94115 | 36701 ft | 520 kts | 72° |
| 2026-04-26 19:23 | 22.07188 | 82.01611 | 36702 ft | 520 kts | 72° |
| 2026-04-26 19:23 | 22.09173 | 82.09051 | 36701 ft | 520 kts | 72° |
| 2026-04-26 19:24 | 22.11171 | 82.16551 | 36704 ft | 520 kts | 72° |
| 2026-04-26 19:24 | 22.14155 | 82.27784 | 36700 ft | 520 kts | 72° |
| 2026-04-26 19:25 | 22.15822 | 82.34077 | 36698 ft | 520 kts | 72° |
| 2026-04-26 19:25 | 22.18126 | 82.42786 | 36699 ft | 520 kts | 72° |
| 2026-04-26 19:26 | 22.20105 | 82.50286 | 36696 ft | 520 kts | 72° |
| 2026-04-26 19:26 | 22.22081 | 82.57786 | 36694 ft | 519 kts | 72° |
| 2026-04-26 19:27 | 22.24050 | 82.65278 | 36695 ft | 519 kts | 72° |
| 2026-04-26 19:27 | 22.26020 | 82.72781 | 36692 ft | 519 kts | 72° |
| 2026-04-26 19:28 | 22.28051 | 82.80257 | 36691 ft | 519 kts | 71° |
| 2026-04-26 19:28 | 22.30098 | 82.87722 | 36688 ft | 519 kts | 71° |
| 2026-04-26 19:29 | 22.32133 | 82.95196 | 36689 ft | 519 kts | 71° |
| 2026-04-26 19:29 | 22.34161 | 83.02670 | 36691 ft | 518 kts | 71° |
| 2026-04-26 19:30 | 22.36184 | 83.10146 | 36687 ft | 518 kts | 71° |
| 2026-04-26 19:30 | 22.37862 | 83.16357 | 36684 ft | 518 kts | 71° |
| 2026-04-26 19:31 | 22.40219 | 83.25097 | 36689 ft | 518 kts | 71° |
| 2026-04-26 19:31 | 22.42232 | 83.32582 | 36694 ft | 519 kts | 71° |
| 2026-04-26 19:32 | 22.44242 | 83.40066 | 36702 ft | 519 kts | 71° |
| 2026-04-26 19:32 | 22.46235 | 83.47506 | 36713 ft | 519 kts | 71° |
| 2026-04-26 19:33 | 22.48241 | 83.55007 | 36716 ft | 519 kts | 71° |
| 2026-04-26 19:33 | 22.50242 | 83.62502 | 36724 ft | 519 kts | 71° |
| 2026-04-26 19:34 | 22.52241 | 83.70007 | 36728 ft | 519 kts | 71° |
| 2026-04-26 19:34 | 22.54232 | 83.77499 | 36734 ft | 519 kts | 71° |
| 2026-04-26 19:35 | 22.56222 | 83.85000 | 36732 ft | 519 kts | 71° |
| 2026-04-26 19:35 | 22.58209 | 83.92504 | 36756 ft | 518 kts | 71° |
| 2026-04-26 19:36 | 22.59856 | 83.98738 | 36746 ft | 518 kts | 71° |
| 2026-04-26 19:36 | 22.62169 | 84.07509 | 36757 ft | 519 kts | 71° |
| 2026-04-26 19:37 | 22.64144 | 84.15015 | 36770 ft | 518 kts | 71° |
| 2026-04-26 19:37 | 22.66114 | 84.22517 | 36768 ft | 518 kts | 72° |
| 2026-04-26 19:38 | 22.68081 | 84.30025 | 36785 ft | 518 kts | 72° |
| 2026-04-26 19:38 | 22.70044 | 84.37530 | 36785 ft | 518 kts | 72° |
| 2026-04-26 19:39 | 22.72003 | 84.45038 | 36789 ft | 518 kts | 72° |
| 2026-04-26 19:39 | 22.73960 | 84.52554 | 36798 ft | 518 kts | 72° |
| 2026-04-26 19:40 | 22.75912 | 84.60069 | 36805 ft | 518 kts | 72° |
| 2026-04-26 19:40 | 22.77826 | 84.67583 | 36807 ft | 518 kts | 72° |
| 2026-04-26 19:41 | 22.79736 | 84.75111 | 36813 ft | 518 kts | 72° |
| 2026-04-26 19:41 | 22.80999 | 84.80089 | 36818 ft | 517 kts | 72° |
| 2026-04-26 19:42 | 22.83550 | 84.90152 | 36819 ft | 517 kts | 72° |
| 2026-04-26 19:42 | 22.85451 | 84.97668 | 36827 ft | 517 kts | 72° |
| 2026-04-26 19:43 | 22.87347 | 85.05184 | 36830 ft | 517 kts | 72° |
| 2026-04-26 19:43 | 22.88898 | 85.12747 | 36830 ft | 518 kts | 82° |
| 2026-04-26 19:44 | 22.89089 | 85.20549 | 36830 ft | 519 kts | 95° |
| 2026-04-26 19:44 | 22.88470 | 85.28330 | 36826 ft | 519 kts | 95° |
| 2026-04-26 19:45 | 22.87872 | 85.36123 | 36820 ft | 519 kts | 95° |
| 2026-04-26 19:45 | 22.87266 | 85.43913 | 36819 ft | 519 kts | 95° |
| 2026-04-26 19:46 | 22.86652 | 85.51706 | 36818 ft | 518 kts | 95° |
| 2026-04-26 19:46 | 22.86034 | 85.59496 | 36809 ft | 519 kts | 95° |
| 2026-04-26 19:47 | 22.85617 | 85.64716 | 36816 ft | 519 kts | 95° |
| 2026-04-26 19:47 | 22.84785 | 85.75091 | 36808 ft | 519 kts | 95° |
| 2026-04-26 19:48 | 22.84155 | 85.82883 | 36798 ft | 519 kts | 95° |
| 2026-04-26 19:48 | 22.83521 | 85.90679 | 36797 ft | 519 kts | 95° |
| 2026-04-26 19:49 | 22.82883 | 85.98476 | 36796 ft | 519 kts | 95° |
| 2026-04-26 19:49 | 22.82350 | 86.04950 | 36789 ft | 519 kts | 95° |
| 2026-04-26 19:50 | 22.81705 | 86.12749 | 36792 ft | 519 kts | 95° |
| 2026-04-26 19:50 | 22.81087 | 86.20536 | 36785 ft | 519 kts | 94° |
| 2026-04-26 19:51 | 22.80693 | 86.28346 | 36779 ft | 519 kts | 92° |
| 2026-04-26 19:51 | 22.80307 | 86.36162 | 36780 ft | 519 kts | 93° |
| 2026-04-26 19:52 | 22.79890 | 86.43975 | 36776 ft | 519 kts | 93° |
| 2026-04-26 19:52 | 22.79461 | 86.51784 | 36778 ft | 519 kts | 93° |
| 2026-04-26 19:53 | 22.79028 | 86.59599 | 36774 ft | 519 kts | 93° |
| 2026-04-26 19:53 | 22.78591 | 86.67416 | 36772 ft | 519 kts | 93° |
| 2026-04-26 19:54 | 22.78151 | 86.75226 | 36766 ft | 519 kts | 93° |
| 2026-04-26 19:54 | 22.77707 | 86.83035 | 36765 ft | 519 kts | 92° |
| 2026-04-26 19:55 | 22.77324 | 86.90791 | 36754 ft | 519 kts | 91° |
| 2026-04-26 19:55 | 22.76901 | 86.98601 | 36749 ft | 518 kts | 92° |
| 2026-04-26 19:56 | 22.76441 | 87.06392 | 36745 ft | 518 kts | 92° |
| 2026-04-26 19:56 | 22.75971 | 87.14186 | 36745 ft | 518 kts | 92° |
| 2026-04-26 19:57 | 22.75499 | 87.21981 | 36751 ft | 518 kts | 93° |
| 2026-04-26 19:57 | 22.75024 | 87.29772 | 36749 ft | 519 kts | 93° |
| 2026-04-26 19:58 | 22.74547 | 87.37576 | 36751 ft | 519 kts | 93° |
| 2026-04-26 19:58 | 22.74068 | 87.45364 | 36752 ft | 519 kts | 93° |
| 2026-04-26 19:59 | 22.73585 | 87.53175 | 36750 ft | 519 kts | 93° |
| 2026-04-26 19:59 | 22.73100 | 87.60967 | 36747 ft | 519 kts | 93° |
| 2026-04-26 20:00 | 22.72610 | 87.68771 | 36744 ft | 519 kts | 94° |
| 2026-04-26 20:00 | 22.72118 | 87.76558 | 36744 ft | 519 kts | 94° |
| 2026-04-26 20:01 | 22.71623 | 87.84356 | 36740 ft | 519 kts | 94° |
| 2026-04-26 20:01 | 22.71124 | 87.92145 | 36738 ft | 518 kts | 94° |
| 2026-04-26 20:02 | 22.70622 | 87.99927 | 36735 ft | 518 kts | 94° |
| 2026-04-26 20:02 | 22.70203 | 88.06395 | 36736 ft | 518 kts | 94° |
| 2026-04-26 20:03 | 22.69608 | 88.15497 | 36727 ft | 518 kts | 94° |
| 2026-04-26 20:03 | 22.69099 | 88.23225 | 36720 ft | 518 kts | 94° |
| 2026-04-26 20:04 | 22.68584 | 88.30996 | 36716 ft | 518 kts | 94° |
| 2026-04-26 20:04 | 22.68082 | 88.38776 | 36713 ft | 518 kts | 91° |
| 2026-04-26 20:05 | 22.68284 | 88.42662 | 36709 ft | 516 kts | 79° |
| 2026-04-26 20:05 | 22.69123 | 88.46422 | 36707 ft | 512 kts | 68° |
| 2026-04-26 20:05 | 22.70544 | 88.49933 | 36709 ft | 507 kts | 56° |
| 2026-04-26 20:05 | 22.72350 | 88.53192 | 36704 ft | 505 kts | 54° |
| 2026-04-26 20:06 | 22.75994 | 88.59705 | 36716 ft | 506 kts | 54° |
| 2026-04-26 20:06 | 22.79629 | 88.66234 | 36702 ft | 506 kts | 54° |
| 2026-04-26 20:07 | 22.81446 | 88.69500 | 36416 ft | 507 kts | 55° |
| 2026-04-26 20:07 | 22.83262 | 88.72766 | 35932 ft | 506 kts | 55° |
| 2026-04-26 20:07 | 22.85079 | 88.76036 | 35393 ft | 504 kts | 55° |
| 2026-04-26 20:07 | 22.86879 | 88.79278 | 34885 ft | 501 kts | 55° |
| 2026-04-26 20:08 | 22.88669 | 88.82502 | 34378 ft | 498 kts | 55° |
| 2026-04-26 20:08 | 22.90450 | 88.85713 | 33884 ft | 496 kts | 55° |
| 2026-04-26 20:08 | 22.92224 | 88.88911 | 33342 ft | 496 kts | 55° |
| 2026-04-26 20:08 | 22.94023 | 88.92104 | 32781 ft | 495 kts | 53° |
| 2026-04-26 20:09 | 22.95905 | 88.95229 | 32238 ft | 495 kts | 52° |
| 2026-04-26 20:09 | 22.97815 | 88.98330 | 31693 ft | 495 kts | 52° |
| 2026-04-26 20:09 | 22.99726 | 89.01437 | 31167 ft | 494 kts | 53° |
| 2026-04-26 20:09 | 23.01624 | 89.04548 | 30649 ft | 494 kts | 53° |
| 2026-04-26 20:10 | 23.03514 | 89.07664 | 30138 ft | 494 kts | 53° |
| 2026-04-26 20:10 | 23.05388 | 89.10766 | 29612 ft | 490 kts | 53° |
| 2026-04-26 20:10 | 23.07226 | 89.13814 | 29029 ft | 485 kts | 53° |
| 2026-04-26 20:10 | 23.09058 | 89.16857 | 28457 ft | 480 kts | 53° |
| 2026-04-26 20:11 | 23.10872 | 89.19872 | 27893 ft | 474 kts | 53° |
| 2026-04-26 20:11 | 23.12667 | 89.22855 | 27338 ft | 468 kts | 53° |
| 2026-04-26 20:11 | 23.14438 | 89.25801 | 26799 ft | 463 kts | 53° |
| 2026-04-26 20:12 | 23.17919 | 89.31593 | 25742 ft | 453 kts | 53° |
| 2026-04-26 20:12 | 23.19630 | 89.34444 | 25235 ft | 448 kts | 52° |
| 2026-04-26 20:12 | 23.21323 | 89.37265 | 24739 ft | 443 kts | 52° |
| 2026-04-26 20:12 | 23.22999 | 89.40058 | 24241 ft | 439 kts | 52° |
| 2026-04-26 20:13 | 23.24661 | 89.42831 | 23756 ft | 436 kts | 52° |
| 2026-04-26 20:13 | 23.26313 | 89.45587 | 23269 ft | 432 kts | 52° |
| 2026-04-26 20:13 | 23.27946 | 89.48315 | 22697 ft | 428 kts | 52° |
| 2026-04-26 20:13 | 23.29561 | 89.51011 | 22143 ft | 425 kts | 52° |
| 2026-04-26 20:14 | 23.31177 | 89.53710 | 21583 ft | 424 kts | 52° |
| 2026-04-26 20:14 | 23.32780 | 89.56390 | 21053 ft | 422 kts | 52° |
| 2026-04-26 20:14 | 23.34372 | 89.59053 | 20507 ft | 418 kts | 53° |
| 2026-04-26 20:14 | 23.35955 | 89.61702 | 20002 ft | 417 kts | 53° |
| 2026-04-26 20:15 | 23.37664 | 89.64224 | 19490 ft | 412 kts | 45° |
| 2026-04-26 20:15 | 23.39652 | 89.66430 | 18990 ft | 404 kts | 37° |
| 2026-04-26 20:15 | 23.41800 | 89.68368 | 18505 ft | 400 kts | 34° |
| 2026-04-26 20:15 | 23.43943 | 89.70295 | 17996 ft | 400 kts | 35° |
| 2026-04-26 20:16 | 23.46089 | 89.72234 | 17358 ft | 400 kts | 35° |
| 2026-04-26 20:16 | 23.48218 | 89.74163 | 16808 ft | 397 kts | 35° |
| 2026-04-26 20:16 | 23.50361 | 89.76016 | 16306 ft | 389 kts | 29° |
| 2026-04-26 20:16 | 23.52679 | 89.77438 | 15822 ft | 378 kts | 18° |
| 2026-04-26 20:17 | 23.55129 | 89.78375 | 15346 ft | 370 kts | 8° |
| 2026-04-26 20:17 | 23.57626 | 89.79042 | 14875 ft | 369 kts | 8° |
| 2026-04-26 20:17 | 23.60101 | 89.79721 | 14414 ft | 366 kts | 8° |
| 2026-04-26 20:17 | 23.61729 | 89.80179 | 14107 ft | 363 kts | 8° |
| 2026-04-26 20:18 | 23.64982 | 89.81091 | 13500 ft | 360 kts | 8° |
| 2026-04-26 20:18 | 23.67412 | 89.81770 | 12991 ft | 360 kts | 8° |
| 2026-04-26 20:18 | 23.69833 | 89.82449 | 12487 ft | 357 kts | 8° |
| 2026-04-26 20:18 | 23.72226 | 89.83112 | 12002 ft | 354 kts | 8° |
| 2026-04-26 20:19 | 23.74555 | 89.83875 | 11526 ft | 356 kts | 16° |
| 2026-04-26 20:19 | 23.76744 | 89.85158 | 11054 ft | 361 kts | 29° |
| 2026-04-26 20:19 | 23.78699 | 89.86905 | 10586 ft | 363 kts | 35° |
| 2026-04-26 20:19 | 23.80592 | 89.88706 | 10130 ft | 360 kts | 35° |
| 2026-04-26 20:20 | 23.82473 | 89.90488 | 9671 ft | 357 kts | 35° |
| 2026-04-26 20:20 | 23.84346 | 89.92257 | 9165 ft | 354 kts | 35° |
| 2026-04-26 20:20 | 23.86176 | 89.93983 | 9016 ft | 341 kts | 35° |
| 2026-04-26 20:20 | 23.87941 | 89.95652 | 8797 ft | 330 kts | 35° |
| 2026-04-26 20:21 | 23.89664 | 89.97277 | 8454 ft | 325 kts | 35° |
| 2026-04-26 20:21 | 23.91372 | 89.98884 | 8073 ft | 322 kts | 36° |
| 2026-04-26 20:21 | 23.93054 | 90.00490 | 7671 ft | 322 kts | 39° |
| 2026-04-26 20:21 | 23.94526 | 90.02352 | 7230 ft | 325 kts | 51° |
| 2026-04-26 20:22 | 23.95856 | 90.04343 | 6827 ft | 324 kts | 51° |
| 2026-04-26 20:22 | 23.97194 | 90.06329 | 6410 ft | 324 kts | 51° |
| 2026-04-26 20:22 | 23.98529 | 90.08301 | 5997 ft | 323 kts | 52° |
| 2026-04-26 20:22 | 23.99864 | 90.10275 | 5551 ft | 322 kts | 52° |
| 2026-04-26 20:23 | 24.01195 | 90.12245 | 5121 ft | 321 kts | 53° |
| 2026-04-26 20:23 | 24.02517 | 90.14207 | 4701 ft | 320 kts | 53° |
| 2026-04-26 20:23 | 24.03837 | 90.16166 | 4253 ft | 319 kts | 54° |
| 2026-04-26 20:23 | 24.05136 | 90.18127 | 3815 ft | 317 kts | 58° |
| 2026-04-26 20:24 | 24.05923 | 90.20333 | 3371 ft | 307 kts | 83° |
| 2026-04-26 20:24 | 24.05829 | 90.22587 | 2941 ft | 291 kts | 109° |
| 2026-04-26 20:24 | 24.04916 | 90.24468 | 2501 ft | 273 kts | 137° |
| 2026-04-26 20:24 | 24.03378 | 90.25522 | 2195 ft | 254 kts | 161° |
| 2026-04-26 20:25 | 24.01794 | 90.26208 | 2054 ft | 237 kts | 158° |
| 2026-04-26 20:25 | 24.00848 | 90.26738 | 1989 ft | 225 kts | 153° |
| 2026-04-26 20:25 | 23.99215 | 90.27901 | 1934 ft | 190 kts | 147° |
| 2026-04-26 20:25 | 23.98235 | 90.28694 | 1917 ft | 161 kts | 147° |
| 2026-04-26 20:26 | 23.97399 | 90.29364 | 1928 ft | 140 kts | 148° |
| 2026-04-26 20:26 | 23.96633 | 90.29973 | 1926 ft | 134 kts | 148° |
| 2026-04-26 20:26 | 23.95896 | 90.30561 | 1924 ft | 133 kts | 148° |
| 2026-04-26 20:26 | 23.95143 | 90.31162 | 1923 ft | 134 kts | 148° |
| 2026-04-26 20:27 | 23.94389 | 90.31764 | 1922 ft | 135 kts | 148° |
| 2026-04-26 20:27 | 23.93632 | 90.32368 | 1912 ft | 135 kts | 148° |
| 2026-04-26 20:27 | 23.92873 | 90.32974 | 1766 ft | 135 kts | 147° |
| 2026-04-26 20:27 | 23.92115 | 90.33579 | 1604 ft | 134 kts | 147° |
| 2026-04-26 20:28 | 23.91370 | 90.34174 | 1431 ft | 132 kts | 146° |
| 2026-04-26 20:28 | 23.90617 | 90.34774 | 1259 ft | 135 kts | 146° |
| 2026-04-26 20:28 | 23.89861 | 90.35378 | 1074 ft | 134 kts | 145° |
| 2026-04-26 20:28 | 23.89117 | 90.35971 | 915 ft | 133 kts | 145° |
| 2026-04-26 20:29 | 23.88366 | 90.36570 | 741 ft | 134 kts | 144° |
| 2026-04-26 20:29 | 23.87615 | 90.37170 | 571 ft | 132 kts | 144° |
| 2026-04-26 20:29 | 23.86884 | 90.37752 | 402 ft | 130 kts | 143° |
| 2026-04-26 20:29 | 23.86161 | 90.38333 | 250 ft | 129 kts | 144° |
| 2026-04-26 20:30 | 23.85434 | 90.38911 | 62 ft | 128 kts | 144° |
| 2026-04-26 20:30 | 23.84772 | 90.39433 | 37 ft | 97 kts | 144° |
| 2026-04-26 20:30 | 23.84345 | 90.39769 | 35 ft | 56 kts | 144° |
| 2026-04-26 20:30 | 23.84136 | 90.39943 | 35 ft | 32 kts | 129° |
| 2026-04-26 20:31 | 23.84049 | 90.40095 | 36 ft | 22 kts | 113° |
| 2026-04-26 20:31 | 23.84001 | 90.40244 | 36 ft | 19 kts | 105° |
| 2026-04-26 20:31 | 23.84008 | 90.40376 | 36 ft | 17 kts | 72° |
| 2026-04-26 20:31 | 23.84073 | 90.40486 | 33 ft | 18 kts | 47° |
| 2026-04-26 20:32 | 23.84148 | 90.40570 | 36 ft | 10 kts | 15° |
| 2026-04-26 20:32 | 23.84224 | 90.40537 | 34 ft | 15 kts | 308° |
| 2026-04-26 20:32 | 23.84293 | 90.40536 | 36 ft | 7 kts | 51° |
| 2026-04-26 20:32 | 23.84335 | 90.40600 | 35 ft | 14 kts | 54° |
| 2026-04-26 20:33 | 23.84388 | 90.40594 | 36 ft | 11 kts | 334° |
| 2026-04-26 20:33 | 23.84459 | 90.40536 | 36 ft | 13 kts | 322° |
| 2026-04-26 20:33 | 23.84522 | 90.40481 | 36 ft | 12 kts | 323° |
| 2026-04-26 20:33 | 23.84536 | 90.40474 | 36 ft | 1 kts | 351° |
| 2026-04-26 20:34 | 23.84552 | 90.40485 | 36 ft | 5 kts | 52° |
| 2026-04-26 20:34 | 23.84572 | 90.40519 | 36 ft | 3 kts | 55° |
| 2026-04-26 20:34 | 23.84579 | 90.40531 | 36 ft | 1 kts | 60° |
| 2026-04-26 20:34 | 23.84584 | 90.40540 | 36 ft | 2 kts | 57° |